sensor_id;sensor_type;location;lat;lon;timestamp;P1;durP1;ratioP1;P2;durP2;ratioP2
34491;SDS011;20737;49.908;8.126;2023-03-01T00:01:19;11.43;;;5.53;;
34491;SDS011;20737;49.908;8.126;2023-03-01T00:03:47;10.70;;;5.43;;
34491;SDS011;20737;49.908;8.126;2023-03-01T00:06:14;13.10;;;6.23;;
34491;SDS011;20737;49.908;8.126;2023-03-01T00:08:41;15.70;;;6.70;;
34491;SDS011;20737;49.908;8.126;2023-03-01T00:11:09;14.77;;;6.97;;
34491;SDS011;20737;49.908;8.126;2023-03-01T00:13:38;13.20;;;5.87;;
34491;SDS011;20737;49.908;8.126;2023-03-01T00:16:06;10.27;;;5.87;;
34491;SDS011;20737;49.908;8.126;2023-03-01T00:18:36;13.07;;;6.07;;
34491;SDS011;20737;49.908;8.126;2023-03-01T00:21:03;10.60;;;5.07;;
34491;SDS011;20737;49.908;8.126;2023-03-01T00:23:33;13.07;;;5.83;;
34491;SDS011;20737;49.908;8.126;2023-03-01T00:26:00;11.77;;;6.27;;
34491;SDS011;20737;49.908;8.126;2023-03-01T00:28:27;11.27;;;5.67;;
34491;SDS011;20737;49.908;8.126;2023-03-01T00:30:53;14.33;;;7.03;;
34491;SDS011;20737;49.908;8.126;2023-03-01T00:33:20;15.77;;;6.07;;
34491;SDS011;20737;49.908;8.126;2023-03-01T00:35:48;15.60;;;6.40;;
34491;SDS011;20737;49.908;8.126;2023-03-01T00:38:15;9.73;;;5.33;;
34491;SDS011;20737;49.908;8.126;2023-03-01T00:40:42;13.10;;;6.20;;
34491;SDS011;20737;49.908;8.126;2023-03-01T00:43:08;10.70;;;6.00;;
34491;SDS011;20737;49.908;8.126;2023-03-01T00:45:37;10.80;;;6.33;;
34491;SDS011;20737;49.908;8.126;2023-03-01T00:48:04;12.63;;;5.67;;
34491;SDS011;20737;49.908;8.126;2023-03-01T00:50:31;16.33;;;6.00;;
34491;SDS011;20737;49.908;8.126;2023-03-01T00:52:59;15.83;;;6.10;;
34491;SDS011;20737;49.908;8.126;2023-03-01T00:55:26;12.10;;;5.50;;
34491;SDS011;20737;49.908;8.126;2023-03-01T00:57:53;12.80;;;5.27;;
34491;SDS011;20737;49.908;8.126;2023-03-01T01:00:20;11.73;;;5.50;;
34491;SDS011;20737;49.908;8.126;2023-03-01T01:02:47;9.77;;;5.67;;
34491;SDS011;20737;49.908;8.126;2023-03-01T01:05:16;12.53;;;5.80;;
34491;SDS011;20737;49.908;8.126;2023-03-01T01:07:45;14.07;;;6.23;;
34491;SDS011;20737;49.908;8.126;2023-03-01T01:10:14;14.50;;;5.87;;
34491;SDS011;20737;49.908;8.126;2023-03-01T01:12:44;10.87;;;5.73;;
34491;SDS011;20737;49.908;8.126;2023-03-01T01:15:11;12.23;;;6.20;;
34491;SDS011;20737;49.908;8.126;2023-03-01T01:17:40;12.13;;;6.17;;
34491;SDS011;20737;49.908;8.126;2023-03-01T01:20:08;11.47;;;5.90;;
34491;SDS011;20737;49.908;8.126;2023-03-01T01:22:35;12.90;;;6.07;;
34491;SDS011;20737;49.908;8.126;2023-03-01T01:25:02;14.23;;;5.77;;
34491;SDS011;20737;49.908;8.126;2023-03-01T01:27:31;10.23;;;5.80;;
34491;SDS011;20737;49.908;8.126;2023-03-01T01:29:58;14.37;;;6.80;;
34491;SDS011;20737;49.908;8.126;2023-03-01T01:32:25;11.90;;;6.23;;
34491;SDS011;20737;49.908;8.126;2023-03-01T01:34:52;10.77;;;5.77;;
34491;SDS011;20737;49.908;8.126;2023-03-01T01:37:19;13.03;;;6.33;;
34491;SDS011;20737;49.908;8.126;2023-03-01T01:39:45;13.73;;;6.37;;
34491;SDS011;20737;49.908;8.126;2023-03-01T01:42:13;14.20;;;6.47;;
34491;SDS011;20737;49.908;8.126;2023-03-01T01:44:45;14.97;;;6.07;;
34491;SDS011;20737;49.908;8.126;2023-03-01T01:47:14;17.00;;;6.60;;
34491;SDS011;20737;49.908;8.126;2023-03-01T01:49:49;9.77;;;5.67;;
34491;SDS011;20737;49.908;8.126;2023-03-01T01:52:21;10.97;;;5.77;;
34491;SDS011;20737;49.908;8.126;2023-03-01T01:54:53;13.65;;;6.05;;
34491;SDS011;20737;49.908;8.126;2023-03-01T01:57:24;17.17;;;6.70;;
34491;SDS011;20737;49.908;8.126;2023-03-01T02:00:05;11.97;;;6.10;;
34491;SDS011;20737;49.908;8.126;2023-03-01T02:02:34;12.73;;;5.50;;
34491;SDS011;20737;49.908;8.126;2023-03-01T02:05:03;14.47;;;6.63;;
34491;SDS011;20737;49.908;8.126;2023-03-01T02:07:37;13.73;;;6.73;;
34491;SDS011;20737;49.908;8.126;2023-03-01T02:10:05;14.07;;;6.00;;
34491;SDS011;20737;49.908;8.126;2023-03-01T02:12:32;15.27;;;6.37;;
34491;SDS011;20737;49.908;8.126;2023-03-01T02:15:03;11.80;;;5.97;;
34491;SDS011;20737;49.908;8.126;2023-03-01T02:17:33;12.50;;;6.67;;
34491;SDS011;20737;49.908;8.126;2023-03-01T02:20:04;13.67;;;6.40;;
34491;SDS011;20737;49.908;8.126;2023-03-01T02:22:44;16.60;;;6.10;;
34491;SDS011;20737;49.908;8.126;2023-03-01T02:27:53;14.60;;;6.33;;
34491;SDS011;20737;49.908;8.126;2023-03-01T02:30:27;14.20;;;6.70;;
34491;SDS011;20737;49.908;8.126;2023-03-01T02:32:54;14.73;;;7.17;;
34491;SDS011;20737;49.908;8.126;2023-03-01T02:35:27;12.85;;;5.68;;
34491;SDS011;20737;49.908;8.126;2023-03-01T02:37:59;16.20;;;7.20;;
34491;SDS011;20737;49.908;8.126;2023-03-01T02:40:27;17.07;;;6.90;;
34491;SDS011;20737;49.908;8.126;2023-03-01T02:42:56;20.13;;;7.37;;
34491;SDS011;20737;49.908;8.126;2023-03-01T02:45:24;13.80;;;6.73;;
34491;SDS011;20737;49.908;8.126;2023-03-01T02:47:53;12.13;;;6.73;;
34491;SDS011;20737;49.908;8.126;2023-03-01T02:50:26;10.70;;;5.63;;
34491;SDS011;20737;49.908;8.126;2023-03-01T02:53:12;16.63;;;7.50;;
34491;SDS011;20737;49.908;8.126;2023-03-01T02:55:49;14.20;;;6.93;;
34491;SDS011;20737;49.908;8.126;2023-03-01T02:58:16;19.03;;;7.60;;
34491;SDS011;20737;49.908;8.126;2023-03-01T03:00:47;14.57;;;6.97;;
34491;SDS011;20737;49.908;8.126;2023-03-01T03:03:15;14.33;;;7.07;;
34491;SDS011;20737;49.908;8.126;2023-03-01T03:05:42;16.67;;;7.93;;
34491;SDS011;20737;49.908;8.126;2023-03-01T03:08:11;14.27;;;6.73;;
34491;SDS011;20737;49.908;8.126;2023-03-01T03:10:39;15.00;;;6.93;;
34491;SDS011;20737;49.908;8.126;2023-03-01T03:13:08;16.13;;;7.63;;
34491;SDS011;20737;49.908;8.126;2023-03-01T03:15:43;16.30;;;7.43;;
34491;SDS011;20737;49.908;8.126;2023-03-01T03:18:23;13.93;;;6.43;;
34491;SDS011;20737;49.908;8.126;2023-03-01T03:20:51;14.77;;;6.43;;
34491;SDS011;20737;49.908;8.126;2023-03-01T03:23:23;13.27;;;6.13;;
34491;SDS011;20737;49.908;8.126;2023-03-01T03:25:50;17.83;;;7.33;;
34491;SDS011;20737;49.908;8.126;2023-03-01T03:28:17;10.80;;;5.77;;
34491;SDS011;20737;49.908;8.126;2023-03-01T03:30:44;20.53;;;7.67;;
34491;SDS011;20737;49.908;8.126;2023-03-01T03:33:12;16.00;;;7.43;;
34491;SDS011;20737;49.908;8.126;2023-03-01T03:35:41;17.67;;;7.27;;
34491;SDS011;20737;49.908;8.126;2023-03-01T03:38:10;13.10;;;6.97;;
34491;SDS011;20737;49.908;8.126;2023-03-01T03:40:42;16.50;;;7.03;;
34491;SDS011;20737;49.908;8.126;2023-03-01T03:43:11;15.13;;;6.73;;
34491;SDS011;20737;49.908;8.126;2023-03-01T03:45:39;18.83;;;6.80;;
34491;SDS011;20737;49.908;8.126;2023-03-01T03:48:07;14.67;;;6.93;;
34491;SDS011;20737;49.908;8.126;2023-03-01T03:50:35;14.53;;;6.50;;
34491;SDS011;20737;49.908;8.126;2023-03-01T03:53:06;15.53;;;7.43;;
34491;SDS011;20737;49.908;8.126;2023-03-01T03:55:34;16.33;;;7.47;;
34491;SDS011;20737;49.908;8.126;2023-03-01T03:58:04;17.37;;;7.80;;
34491;SDS011;20737;49.908;8.126;2023-03-01T04:00:33;15.53;;;6.73;;
34491;SDS011;20737;49.908;8.126;2023-03-01T04:03:00;20.40;;;6.67;;
34491;SDS011;20737;49.908;8.126;2023-03-01T04:05:27;13.70;;;8.00;;
34491;SDS011;20737;49.908;8.126;2023-03-01T04:07:54;12.40;;;6.57;;
34491;SDS011;20737;49.908;8.126;2023-03-01T04:10:34;17.40;;;7.30;;
34491;SDS011;20737;49.908;8.126;2023-03-01T04:13:04;13.67;;;6.27;;
34491;SDS011;20737;49.908;8.126;2023-03-01T04:15:31;15.93;;;7.60;;
34491;SDS011;20737;49.908;8.126;2023-03-01T04:17:59;14.33;;;6.30;;
34491;SDS011;20737;49.908;8.126;2023-03-01T04:20:27;15.83;;;7.93;;
34491;SDS011;20737;49.908;8.126;2023-03-01T04:22:59;16.17;;;6.83;;
34491;SDS011;20737;49.908;8.126;2023-03-01T04:25:36;13.63;;;6.07;;
34491;SDS011;20737;49.908;8.126;2023-03-01T04:28:04;15.93;;;7.00;;
34491;SDS011;20737;49.908;8.126;2023-03-01T04:30:30;16.87;;;6.87;;
34491;SDS011;20737;49.908;8.126;2023-03-01T04:33:00;15.73;;;7.67;;
34491;SDS011;20737;49.908;8.126;2023-03-01T04:35:30;11.93;;;6.97;;
34491;SDS011;20737;49.908;8.126;2023-03-01T04:37:58;17.10;;;8.17;;
34491;SDS011;20737;49.908;8.126;2023-03-01T04:40:26;16.90;;;7.27;;
34491;SDS011;20737;49.908;8.126;2023-03-01T04:42:56;13.03;;;7.07;;
34491;SDS011;20737;49.908;8.126;2023-03-01T04:45:23;20.97;;;7.70;;
34491;SDS011;20737;49.908;8.126;2023-03-01T04:47:50;14.37;;;6.47;;
34491;SDS011;20737;49.908;8.126;2023-03-01T04:50:17;17.87;;;7.47;;
34491;SDS011;20737;49.908;8.126;2023-03-01T04:52:53;13.82;;;6.55;;
34491;SDS011;20737;49.908;8.126;2023-03-01T04:55:23;14.82;;;6.60;;
34491;SDS011;20737;49.908;8.126;2023-03-01T04:57:50;16.87;;;7.40;;
34491;SDS011;20737;49.908;8.126;2023-03-01T05:00:20;16.07;;;6.90;;
34491;SDS011;20737;49.908;8.126;2023-03-01T05:02:48;14.43;;;7.00;;
34491;SDS011;20737;49.908;8.126;2023-03-01T05:05:30;13.73;;;6.97;;
34491;SDS011;20737;49.908;8.126;2023-03-01T05:07:59;13.63;;;7.07;;
34491;SDS011;20737;49.908;8.126;2023-03-01T05:10:28;16.80;;;7.17;;
34491;SDS011;20737;49.908;8.126;2023-03-01T05:12:57;14.73;;;7.37;;
34491;SDS011;20737;49.908;8.126;2023-03-01T05:15:26;13.77;;;7.30;;
34491;SDS011;20737;49.908;8.126;2023-03-01T05:17:55;20.17;;;7.77;;
34491;SDS011;20737;49.908;8.126;2023-03-01T05:20:26;14.23;;;7.47;;
34491;SDS011;20737;49.908;8.126;2023-03-01T05:22:57;19.53;;;7.07;;
34491;SDS011;20737;49.908;8.126;2023-03-01T05:25:24;16.53;;;7.87;;
34491;SDS011;20737;49.908;8.126;2023-03-01T05:27:51;15.33;;;7.30;;
34491;SDS011;20737;49.908;8.126;2023-03-01T05:30:18;15.27;;;7.60;;
34491;SDS011;20737;49.908;8.126;2023-03-01T05:32:48;16.23;;;7.93;;
34491;SDS011;20737;49.908;8.126;2023-03-01T05:35:20;16.80;;;7.53;;
34491;SDS011;20737;49.908;8.126;2023-03-01T05:37:50;14.43;;;7.20;;
34491;SDS011;20737;49.908;8.126;2023-03-01T05:40:20;21.37;;;7.43;;
34491;SDS011;20737;49.908;8.126;2023-03-01T05:42:50;14.83;;;6.97;;
34491;SDS011;20737;49.908;8.126;2023-03-01T05:45:22;20.00;;;7.90;;
34491;SDS011;20737;49.908;8.126;2023-03-01T05:47:51;18.07;;;8.03;;
34491;SDS011;20737;49.908;8.126;2023-03-01T05:50:21;21.73;;;9.43;;
34491;SDS011;20737;49.908;8.126;2023-03-01T05:52:50;20.87;;;8.73;;
34491;SDS011;20737;49.908;8.126;2023-03-01T05:55:20;18.57;;;9.23;;
34491;SDS011;20737;49.908;8.126;2023-03-01T05:57:47;21.00;;;8.87;;
34491;SDS011;20737;49.908;8.126;2023-03-01T06:00:16;18.87;;;8.17;;
34491;SDS011;20737;49.908;8.126;2023-03-01T06:02:44;26.47;;;8.80;;
34491;SDS011;20737;49.908;8.126;2023-03-01T06:05:13;18.67;;;8.37;;
34491;SDS011;20737;49.908;8.126;2023-03-01T06:07:40;15.67;;;7.37;;
34491;SDS011;20737;49.908;8.126;2023-03-01T06:10:08;20.50;;;7.93;;
34491;SDS011;20737;49.908;8.126;2023-03-01T06:12:36;17.53;;;8.03;;
34491;SDS011;20737;49.908;8.126;2023-03-01T06:15:05;20.97;;;8.63;;
34491;SDS011;20737;49.908;8.126;2023-03-01T06:17:34;17.00;;;7.93;;
34491;SDS011;20737;49.908;8.126;2023-03-01T06:20:05;19.13;;;8.27;;
34491;SDS011;20737;49.908;8.126;2023-03-01T06:22:37;18.20;;;8.67;;
34491;SDS011;20737;49.908;8.126;2023-03-01T06:25:05;17.67;;;7.87;;
34491;SDS011;20737;49.908;8.126;2023-03-01T06:27:32;17.87;;;7.77;;
34491;SDS011;20737;49.908;8.126;2023-03-01T06:30:01;15.33;;;7.40;;
34491;SDS011;20737;49.908;8.126;2023-03-01T06:32:28;17.40;;;7.63;;
34491;SDS011;20737;49.908;8.126;2023-03-01T06:34:55;16.87;;;8.23;;
34491;SDS011;20737;49.908;8.126;2023-03-01T06:37:28;20.30;;;8.00;;
34491;SDS011;20737;49.908;8.126;2023-03-01T06:39:59;18.70;;;7.83;;
34491;SDS011;20737;49.908;8.126;2023-03-01T06:42:29;15.93;;;8.00;;
34491;SDS011;20737;49.908;8.126;2023-03-01T06:44:56;15.17;;;7.43;;
34491;SDS011;20737;49.908;8.126;2023-03-01T06:47:23;18.77;;;7.47;;
34491;SDS011;20737;49.908;8.126;2023-03-01T06:49:49;20.43;;;8.77;;
34491;SDS011;20737;49.908;8.126;2023-03-01T06:52:16;19.43;;;9.40;;
34491;SDS011;20737;49.908;8.126;2023-03-01T06:54:43;19.23;;;8.63;;
34491;SDS011;20737;49.908;8.126;2023-03-01T06:57:14;17.87;;;8.07;;
34491;SDS011;20737;49.908;8.126;2023-03-01T06:59:41;18.93;;;8.13;;
34491;SDS011;20737;49.908;8.126;2023-03-01T07:02:09;21.90;;;8.03;;
34491;SDS011;20737;49.908;8.126;2023-03-01T07:04:36;15.90;;;7.17;;
34491;SDS011;20737;49.908;8.126;2023-03-01T07:07:03;20.43;;;8.67;;
34491;SDS011;20737;49.908;8.126;2023-03-01T07:09:29;20.67;;;9.10;;
34491;SDS011;20737;49.908;8.126;2023-03-01T07:11:56;24.50;;;9.70;;
34491;SDS011;20737;49.908;8.126;2023-03-01T07:14:25;19.80;;;8.27;;
34491;SDS011;20737;49.908;8.126;2023-03-01T07:16:51;18.33;;;8.33;;
34491;SDS011;20737;49.908;8.126;2023-03-01T07:19:18;16.83;;;8.13;;
34491;SDS011;20737;49.908;8.126;2023-03-01T07:21:45;15.50;;;7.37;;
34491;SDS011;20737;49.908;8.126;2023-03-01T07:24:12;14.63;;;7.57;;
34491;SDS011;20737;49.908;8.126;2023-03-01T07:26:39;17.67;;;8.93;;
34491;SDS011;20737;49.908;8.126;2023-03-01T07:29:06;18.87;;;8.50;;
34491;SDS011;20737;49.908;8.126;2023-03-01T07:31:38;16.53;;;8.97;;
34491;SDS011;20737;49.908;8.126;2023-03-01T07:34:05;16.83;;;9.47;;
34491;SDS011;20737;49.908;8.126;2023-03-01T07:36:31;15.20;;;8.63;;
34491;SDS011;20737;49.908;8.126;2023-03-01T07:39:00;17.60;;;7.97;;
34491;SDS011;20737;49.908;8.126;2023-03-01T07:41:33;14.25;;;7.82;;
34491;SDS011;20737;49.908;8.126;2023-03-01T07:44:00;24.83;;;9.30;;
34491;SDS011;20737;49.908;8.126;2023-03-01T07:46:26;16.37;;;8.20;;
34491;SDS011;20737;49.908;8.126;2023-03-01T07:48:54;16.43;;;7.97;;
34491;SDS011;20737;49.908;8.126;2023-03-01T07:51:23;15.02;;;8.38;;
34491;SDS011;20737;49.908;8.126;2023-03-01T07:53:49;17.38;;;9.13;;
34491;SDS011;20737;49.908;8.126;2023-03-01T07:56:16;16.85;;;7.85;;
34491;SDS011;20737;49.908;8.126;2023-03-01T07:58:44;17.13;;;8.57;;
34491;SDS011;20737;49.908;8.126;2023-03-01T08:01:12;13.75;;;8.10;;
34491;SDS011;20737;49.908;8.126;2023-03-01T08:03:40;13.25;;;7.95;;
34491;SDS011;20737;49.908;8.126;2023-03-01T08:06:10;13.23;;;8.32;;
34491;SDS011;20737;49.908;8.126;2023-03-01T08:08:38;17.95;;;8.68;;
34491;SDS011;20737;49.908;8.126;2023-03-01T08:11:05;15.85;;;8.30;;
34491;SDS011;20737;49.908;8.126;2023-03-01T08:13:33;13.80;;;8.45;;
34491;SDS011;20737;49.908;8.126;2023-03-01T08:16:00;16.02;;;8.63;;
34491;SDS011;20737;49.908;8.126;2023-03-01T08:18:28;14.32;;;8.38;;
34491;SDS011;20737;49.908;8.126;2023-03-01T08:20:55;18.85;;;9.02;;
34491;SDS011;20737;49.908;8.126;2023-03-01T08:23:28;17.33;;;9.35;;
34491;SDS011;20737;49.908;8.126;2023-03-01T08:25:55;15.43;;;9.25;;
34491;SDS011;20737;49.908;8.126;2023-03-01T08:28:28;14.07;;;8.20;;
34491;SDS011;20737;49.908;8.126;2023-03-01T08:30:55;15.40;;;8.95;;
34491;SDS011;20737;49.908;8.126;2023-03-01T08:33:22;15.18;;;8.65;;
34491;SDS011;20737;49.908;8.126;2023-03-01T08:35:51;18.90;;;9.00;;
34491;SDS011;20737;49.908;8.126;2023-03-01T08:38:17;11.80;;;7.80;;
34491;SDS011;20737;49.908;8.126;2023-03-01T08:40:45;17.63;;;9.30;;
34491;SDS011;20737;49.908;8.126;2023-03-01T08:43:16;14.75;;;9.57;;
34491;SDS011;20737;49.908;8.126;2023-03-01T08:45:44;15.18;;;9.40;;
34491;SDS011;20737;49.908;8.126;2023-03-01T08:48:11;17.42;;;9.52;;
34491;SDS011;20737;49.908;8.126;2023-03-01T08:50:37;14.63;;;9.48;;
34491;SDS011;20737;49.908;8.126;2023-03-01T08:53:04;17.83;;;10.07;;
34491;SDS011;20737;49.908;8.126;2023-03-01T08:55:31;13.75;;;9.55;;
34491;SDS011;20737;49.908;8.126;2023-03-01T08:57:59;13.60;;;9.48;;
34491;SDS011;20737;49.908;8.126;2023-03-01T09:00:25;12.75;;;9.25;;
34491;SDS011;20737;49.908;8.126;2023-03-01T09:02:52;11.43;;;9.00;;
34491;SDS011;20737;49.908;8.126;2023-03-01T09:05:19;14.82;;;9.43;;
34491;SDS011;20737;49.908;8.126;2023-03-01T09:07:46;16.95;;;10.38;;
34491;SDS011;20737;49.908;8.126;2023-03-01T09:10:13;14.10;;;10.20;;
34491;SDS011;20737;49.908;8.126;2023-03-01T09:12:39;16.30;;;9.43;;
34491;SDS011;20737;49.908;8.126;2023-03-01T09:15:08;14.85;;;9.77;;
34491;SDS011;20737;49.908;8.126;2023-03-01T09:17:36;15.85;;;9.95;;
34491;SDS011;20737;49.908;8.126;2023-03-01T09:20:03;12.32;;;9.60;;
34491;SDS011;20737;49.908;8.126;2023-03-01T09:22:30;13.63;;;8.95;;
34491;SDS011;20737;49.908;8.126;2023-03-01T09:24:59;13.27;;;9.65;;
34491;SDS011;20737;49.908;8.126;2023-03-01T09:27:26;15.40;;;10.00;;
34491;SDS011;20737;49.908;8.126;2023-03-01T09:29:55;16.08;;;10.25;;
34491;SDS011;20737;49.908;8.126;2023-03-01T09:32:23;12.93;;;9.77;;
34491;SDS011;20737;49.908;8.126;2023-03-01T09:34:50;12.60;;;9.88;;
34491;SDS011;20737;49.908;8.126;2023-03-01T09:37:30;13.35;;;9.90;;
34491;SDS011;20737;49.908;8.126;2023-03-01T09:39:57;13.70;;;11.30;;
34491;SDS011;20737;49.908;8.126;2023-03-01T09:42:24;14.13;;;10.23;;
34491;SDS011;20737;49.908;8.126;2023-03-01T09:44:52;14.80;;;10.55;;
34491;SDS011;20737;49.908;8.126;2023-03-01T09:47:25;17.15;;;11.00;;
34491;SDS011;20737;49.908;8.126;2023-03-01T09:49:57;14.82;;;10.30;;
34491;SDS011;20737;49.908;8.126;2023-03-01T09:52:29;14.25;;;10.18;;
34491;SDS011;20737;49.908;8.126;2023-03-01T09:55:00;14.43;;;10.60;;
34491;SDS011;20737;49.908;8.126;2023-03-01T09:57:28;14.00;;;10.23;;
34491;SDS011;20737;49.908;8.126;2023-03-01T10:00:16;17.27;;;11.38;;
34491;SDS011;20737;49.908;8.126;2023-03-01T10:02:52;17.75;;;11.35;;
34491;SDS011;20737;49.908;8.126;2023-03-01T10:05:29;18.52;;;10.93;;
34491;SDS011;20737;49.908;8.126;2023-03-01T10:08:04;14.00;;;11.55;;
34491;SDS011;20737;49.908;8.126;2023-03-01T10:10:46;14.43;;;10.63;;
34491;SDS011;20737;49.908;8.126;2023-03-01T10:13:15;14.85;;;11.20;;
34491;SDS011;20737;49.908;8.126;2023-03-01T10:15:47;13.95;;;11.65;;
34491;SDS011;20737;49.908;8.126;2023-03-01T10:18:22;17.33;;;11.80;;
34491;SDS011;20737;49.908;8.126;2023-03-01T10:20:52;15.18;;;11.75;;
34491;SDS011;20737;49.908;8.126;2023-03-01T10:23:22;15.45;;;11.60;;
34491;SDS011;20737;49.908;8.126;2023-03-01T10:25:56;15.63;;;11.55;;
34491;SDS011;20737;49.908;8.126;2023-03-01T10:28:39;15.13;;;11.13;;
34491;SDS011;20737;49.908;8.126;2023-03-01T10:31:14;13.55;;;10.93;;
34491;SDS011;20737;49.908;8.126;2023-03-01T10:33:48;17.35;;;11.70;;
34491;SDS011;20737;49.908;8.126;2023-03-01T10:36:20;17.48;;;12.52;;
34491;SDS011;20737;49.908;8.126;2023-03-01T10:38:48;14.32;;;10.77;;
34491;SDS011;20737;49.908;8.126;2023-03-01T10:41:17;15.73;;;11.77;;
34491;SDS011;20737;49.908;8.126;2023-03-01T10:43:45;16.40;;;11.82;;
34491;SDS011;20737;49.908;8.126;2023-03-01T10:46:22;18.60;;;12.65;;
34491;SDS011;20737;49.908;8.126;2023-03-01T10:49:12;15.93;;;12.27;;
34491;SDS011;20737;49.908;8.126;2023-03-01T10:51:42;16.98;;;12.85;;
34491;SDS011;20737;49.908;8.126;2023-03-01T10:54:18;16.52;;;12.07;;
34491;SDS011;20737;49.908;8.126;2023-03-01T10:56:47;17.05;;;12.30;;
34491;SDS011;20737;49.908;8.126;2023-03-01T10:59:27;16.65;;;11.88;;
34491;SDS011;20737;49.908;8.126;2023-03-01T11:02:02;16.38;;;11.98;;
34491;SDS011;20737;49.908;8.126;2023-03-01T11:07:46;16.95;;;11.43;;
34491;SDS011;20737;49.908;8.126;2023-03-01T11:10:16;17.80;;;12.25;;
34491;SDS011;20737;49.908;8.126;2023-03-01T11:12:44;14.93;;;11.52;;
34491;SDS011;20737;49.908;8.126;2023-03-01T11:15:19;15.57;;;11.25;;
34491;SDS011;20737;49.908;8.126;2023-03-01T11:17:51;16.27;;;11.48;;
34491;SDS011;20737;49.908;8.126;2023-03-01T11:20:23;14.75;;;11.82;;
34491;SDS011;20737;49.908;8.126;2023-03-01T11:22:53;15.38;;;11.48;;
34491;SDS011;20737;49.908;8.126;2023-03-01T11:25:23;14.85;;;11.18;;
34491;SDS011;20737;49.908;8.126;2023-03-01T11:27:54;15.70;;;11.38;;
34491;SDS011;20737;49.908;8.126;2023-03-01T11:30:23;16.80;;;10.70;;
34491;SDS011;20737;49.908;8.126;2023-03-01T11:32:57;17.92;;;11.57;;
34491;SDS011;20737;49.908;8.126;2023-03-01T11:35:32;14.98;;;11.63;;
34491;SDS011;20737;49.908;8.126;2023-03-01T11:38:05;14.57;;;11.75;;
34491;SDS011;20737;49.908;8.126;2023-03-01T11:40:43;14.52;;;11.95;;
34491;SDS011;20737;49.908;8.126;2023-03-01T11:43:15;15.18;;;12.50;;
34491;SDS011;20737;49.908;8.126;2023-03-01T11:45:52;15.98;;;12.18;;
34491;SDS011;20737;49.908;8.126;2023-03-01T11:51:15;16.05;;;12.10;;
34491;SDS011;20737;49.908;8.126;2023-03-01T11:53:51;16.10;;;11.35;;
34491;SDS011;20737;49.908;8.126;2023-03-01T11:56:31;15.52;;;12.00;;
34491;SDS011;20737;49.908;8.126;2023-03-01T11:59:03;16.02;;;12.20;;
34491;SDS011;20737;49.908;8.126;2023-03-01T12:02:09;15.20;;;11.60;;
34491;SDS011;20737;49.908;8.126;2023-03-01T12:04:59;15.02;;;10.77;;
34491;SDS011;20737;49.908;8.126;2023-03-01T12:07:44;14.88;;;11.32;;
34491;SDS011;20737;49.908;8.126;2023-03-01T12:10:20;14.48;;;10.57;;
34491;SDS011;20737;49.908;8.126;2023-03-01T12:12:54;14.15;;;11.15;;
34491;SDS011;20737;49.908;8.126;2023-03-01T12:18:30;13.82;;;9.98;;
34491;SDS011;20737;49.908;8.126;2023-03-01T12:21:21;15.38;;;11.02;;
34491;SDS011;20737;49.908;8.126;2023-03-01T12:24:10;15.23;;;9.98;;
34491;SDS011;20737;49.908;8.126;2023-03-01T12:27:10;15.57;;;10.52;;
34491;SDS011;20737;49.908;8.126;2023-03-01T12:29:46;13.25;;;9.23;;
34491;SDS011;20737;49.908;8.126;2023-03-01T12:32:21;15.38;;;9.40;;
34491;SDS011;20737;49.908;8.126;2023-03-01T12:35:05;14.70;;;10.23;;
34491;SDS011;20737;49.908;8.126;2023-03-01T12:37:54;13.45;;;9.73;;
34491;SDS011;20737;49.908;8.126;2023-03-01T12:40:33;12.00;;;8.73;;
34491;SDS011;20737;49.908;8.126;2023-03-01T12:43:12;16.13;;;9.57;;
34491;SDS011;20737;49.908;8.126;2023-03-01T12:45:50;15.18;;;9.65;;
34491;SDS011;20737;49.908;8.126;2023-03-01T12:48:31;13.32;;;9.00;;
34491;SDS011;20737;49.908;8.126;2023-03-01T12:51:07;12.60;;;9.07;;
34491;SDS011;20737;49.908;8.126;2023-03-01T12:53:41;12.85;;;8.75;;
34491;SDS011;20737;49.908;8.126;2023-03-01T12:56:15;14.05;;;8.50;;
34491;SDS011;20737;49.908;8.126;2023-03-01T12:58:47;13.45;;;9.18;;
34491;SDS011;20737;49.908;8.126;2023-03-01T13:01:22;12.70;;;9.07;;
34491;SDS011;20737;49.908;8.126;2023-03-01T13:04:07;11.40;;;8.27;;
34491;SDS011;20737;49.908;8.126;2023-03-01T13:06:41;13.02;;;8.82;;
34491;SDS011;20737;49.908;8.126;2023-03-01T13:09:14;13.18;;;9.07;;
34491;SDS011;20737;49.908;8.126;2023-03-01T13:11:51;11.65;;;8.00;;
34491;SDS011;20737;49.908;8.126;2023-03-01T13:14:34;12.32;;;7.78;;
34491;SDS011;20737;49.908;8.126;2023-03-01T13:17:03;11.48;;;7.72;;
34491;SDS011;20737;49.908;8.126;2023-03-01T13:19:29;10.75;;;7.60;;
34491;SDS011;20737;49.908;8.126;2023-03-01T13:21:57;10.43;;;7.57;;
34491;SDS011;20737;49.908;8.126;2023-03-01T13:24:25;10.95;;;7.88;;
34491;SDS011;20737;49.908;8.126;2023-03-01T13:27:18;13.02;;;8.57;;
34491;SDS011;20737;49.908;8.126;2023-03-01T13:29:55;12.27;;;7.30;;
34491;SDS011;20737;49.908;8.126;2023-03-01T13:32:25;13.82;;;8.27;;
34491;SDS011;20737;49.908;8.126;2023-03-01T13:34:56;12.02;;;8.18;;
34491;SDS011;20737;49.908;8.126;2023-03-01T13:37:27;9.65;;;7.25;;
34491;SDS011;20737;49.908;8.126;2023-03-01T13:40:00;11.23;;;7.35;;
34491;SDS011;20737;49.908;8.126;2023-03-01T13:42:33;9.63;;;6.78;;
34491;SDS011;20737;49.908;8.126;2023-03-01T13:45:03;9.32;;;6.47;;
34491;SDS011;20737;49.908;8.126;2023-03-01T13:47:41;10.10;;;7.03;;
34491;SDS011;20737;49.908;8.126;2023-03-01T13:50:15;11.13;;;7.07;;
34491;SDS011;20737;49.908;8.126;2023-03-01T13:52:45;10.07;;;6.82;;
34491;SDS011;20737;49.908;8.126;2023-03-01T13:55:16;13.35;;;6.95;;
34491;SDS011;20737;49.908;8.126;2023-03-01T13:57:47;10.38;;;7.07;;
34491;SDS011;20737;49.908;8.126;2023-03-01T14:00:29;15.27;;;7.75;;
34491;SDS011;20737;49.908;8.126;2023-03-01T14:03:05;11.70;;;7.05;;
34491;SDS011;20737;49.908;8.126;2023-03-01T14:05:37;11.35;;;7.75;;
34491;SDS011;20737;49.908;8.126;2023-03-01T14:08:17;9.65;;;6.35;;
34491;SDS011;20737;49.908;8.126;2023-03-01T14:10:49;10.43;;;6.03;;
34491;SDS011;20737;49.908;8.126;2023-03-01T14:13:45;10.20;;;6.30;;
34491;SDS011;20737;49.908;8.126;2023-03-01T14:16:24;12.75;;;7.07;;
34491;SDS011;20737;49.908;8.126;2023-03-01T14:19:02;7.72;;;5.47;;
34491;SDS011;20737;49.908;8.126;2023-03-01T14:21:41;9.43;;;6.50;;
34491;SDS011;20737;49.908;8.126;2023-03-01T14:24:14;11.93;;;6.68;;
34491;SDS011;20737;49.908;8.126;2023-03-01T14:26:43;10.60;;;6.40;;
34491;SDS011;20737;49.908;8.126;2023-03-01T14:29:24;8.57;;;6.45;;
34491;SDS011;20737;49.908;8.126;2023-03-01T14:31:51;10.38;;;5.72;;
34491;SDS011;20737;49.908;8.126;2023-03-01T14:34:19;8.63;;;6.38;;
34491;SDS011;20737;49.908;8.126;2023-03-01T14:36:47;8.27;;;6.40;;
34491;SDS011;20737;49.908;8.126;2023-03-01T14:39:17;9.07;;;6.38;;
34491;SDS011;20737;49.908;8.126;2023-03-01T14:41:46;8.93;;;6.40;;
34491;SDS011;20737;49.908;8.126;2023-03-01T14:44:14;10.50;;;6.50;;
34491;SDS011;20737;49.908;8.126;2023-03-01T14:46:46;9.43;;;5.32;;
34491;SDS011;20737;49.908;8.126;2023-03-01T14:49:19;7.75;;;6.03;;
34491;SDS011;20737;49.908;8.126;2023-03-01T14:51:49;7.82;;;5.65;;
34491;SDS011;20737;49.908;8.126;2023-03-01T14:54:20;11.45;;;7.20;;
34491;SDS011;20737;49.908;8.126;2023-03-01T14:56:50;9.75;;;7.07;;
34491;SDS011;20737;49.908;8.126;2023-03-01T14:59:23;11.18;;;6.25;;
34491;SDS011;20737;49.908;8.126;2023-03-01T15:01:53;12.75;;;5.65;;
34491;SDS011;20737;49.908;8.126;2023-03-01T15:04:22;9.25;;;6.25;;
34491;SDS011;20737;49.908;8.126;2023-03-01T15:06:51;12.30;;;6.85;;